sensor_id;sensor_type;location;lat;lon;timestamp;P1;durP1;ratioP1;P2;durP2;ratioP2
22881;SDS011;11608;50.894;5.296;2023-07-08T00:00:43;22.60;;;20.80;;
22881;SDS011;11608;50.894;5.296;2023-07-08T00:03:10;23.08;;;21.27;;
22881;SDS011;11608;50.894;5.296;2023-07-08T00:05:36;23.02;;;21.00;;
22881;SDS011;11608;50.894;5.296;2023-07-08T00:08:02;23.63;;;21.63;;
22881;SDS011;11608;50.894;5.296;2023-07-08T00:10:29;22.45;;;20.75;;
22881;SDS011;11608;50.894;5.296;2023-07-08T00:12:55;22.27;;;20.58;;
22881;SDS011;11608;50.894;5.296;2023-07-08T00:15:22;22.92;;;20.92;;
22881;SDS011;11608;50.894;5.296;2023-07-08T00:17:50;22.98;;;21.05;;
22881;SDS011;11608;50.894;5.296;2023-07-08T00:20:20;22.45;;;20.65;;
22881;SDS011;11608;50.894;5.296;2023-07-08T00:22:47;22.05;;;20.35;;
22881;SDS011;11608;50.894;5.296;2023-07-08T00:25:15;21.55;;;19.95;;
22881;SDS011;11608;50.894;5.296;2023-07-08T00:27:41;22.33;;;20.63;;
22881;SDS011;11608;50.894;5.296;2023-07-08T00:32:39;22.27;;;20.35;;
22881;SDS011;11608;50.894;5.296;2023-07-08T00:35:06;21.95;;;20.23;;
22881;SDS011;11608;50.894;5.296;2023-07-08T00:37:32;22.17;;;20.40;;
22881;SDS011;11608;50.894;5.296;2023-07-08T00:39:58;21.85;;;20.35;;
22881;SDS011;11608;50.894;5.296;2023-07-08T00:42:25;22.80;;;21.00;;
22881;SDS011;11608;50.894;5.296;2023-07-08T00:44:51;22.00;;;20.30;;
22881;SDS011;11608;50.894;5.296;2023-07-08T00:47:17;22.88;;;21.10;;
22881;SDS011;11608;50.894;5.296;2023-07-08T00:49:55;23.38;;;21.17;;
22881;SDS011;11608;50.894;5.296;2023-07-08T00:52:26;22.63;;;20.95;;
22881;SDS011;11608;50.894;5.296;2023-07-08T00:54:53;23.75;;;21.70;;
22881;SDS011;11608;50.894;5.296;2023-07-08T00:57:19;22.17;;;20.45;;
22881;SDS011;11608;50.894;5.296;2023-07-08T00:59:48;22.92;;;21.10;;
22881;SDS011;11608;50.894;5.296;2023-07-08T01:02:16;22.58;;;20.90;;
22881;SDS011;11608;50.894;5.296;2023-07-08T01:04:59;23.33;;;21.42;;
22881;SDS011;11608;50.894;5.296;2023-07-08T01:07:27;22.98;;;21.17;;
22881;SDS011;11608;50.894;5.296;2023-07-08T01:09:55;22.73;;;20.92;;
22881;SDS011;11608;50.894;5.296;2023-07-08T01:12:25;22.70;;;20.85;;
22881;SDS011;11608;50.894;5.296;2023-07-08T01:14:52;21.80;;;20.23;;
22881;SDS011;11608;50.894;5.296;2023-07-08T01:17:20;23.23;;;21.00;;
22881;SDS011;11608;50.894;5.296;2023-07-08T01:19:47;22.75;;;20.95;;
22881;SDS011;11608;50.894;5.296;2023-07-08T01:22:13;22.60;;;20.90;;
22881;SDS011;11608;50.894;5.296;2023-07-08T01:24:40;23.13;;;21.35;;
22881;SDS011;11608;50.894;5.296;2023-07-08T01:27:07;23.08;;;21.23;;
22881;SDS011;11608;50.894;5.296;2023-07-08T01:29:34;23.02;;;21.23;;
22881;SDS011;11608;50.894;5.296;2023-07-08T01:32:00;23.30;;;21.38;;
22881;SDS011;11608;50.894;5.296;2023-07-08T01:34:31;23.23;;;21.17;;
22881;SDS011;11608;50.894;5.296;2023-07-08T01:36:57;24.33;;;22.33;;
22881;SDS011;11608;50.894;5.296;2023-07-08T01:39:24;23.10;;;21.25;;
22881;SDS011;11608;50.894;5.296;2023-07-08T01:41:51;23.05;;;21.15;;
22881;SDS011;11608;50.894;5.296;2023-07-08T01:44:19;22.70;;;20.80;;
22881;SDS011;11608;50.894;5.296;2023-07-08T01:46:49;22.58;;;20.77;;
22881;SDS011;11608;50.894;5.296;2023-07-08T01:49:16;23.35;;;21.38;;
22881;SDS011;11608;50.894;5.296;2023-07-08T01:51:42;22.98;;;21.17;;
22881;SDS011;11608;50.894;5.296;2023-07-08T01:54:08;22.85;;;21.15;;
22881;SDS011;11608;50.894;5.296;2023-07-08T01:56:34;23.80;;;21.63;;
22881;SDS011;11608;50.894;5.296;2023-07-08T01:59:00;23.15;;;21.35;;
22881;SDS011;11608;50.894;5.296;2023-07-08T02:01:26;22.45;;;20.65;;
22881;SDS011;11608;50.894;5.296;2023-07-08T02:03:52;22.98;;;21.02;;
22881;SDS011;11608;50.894;5.296;2023-07-08T02:06:18;22.65;;;20.85;;
22881;SDS011;11608;50.894;5.296;2023-07-08T02:08:44;23.20;;;21.23;;
22881;SDS011;11608;50.894;5.296;2023-07-08T02:11:10;22.52;;;20.75;;
22881;SDS011;11608;50.894;5.296;2023-07-08T02:13:36;23.60;;;21.77;;
22881;SDS011;11608;50.894;5.296;2023-07-08T02:16:02;23.27;;;21.38;;
22881;SDS011;11608;50.894;5.296;2023-07-08T02:18:28;22.80;;;21.10;;
22881;SDS011;11608;50.894;5.296;2023-07-08T02:20:57;23.80;;;21.90;;
22881;SDS011;11608;50.894;5.296;2023-07-08T02:23:24;23.80;;;21.88;;
22881;SDS011;11608;50.894;5.296;2023-07-08T02:25:54;23.55;;;21.65;;
22881;SDS011;11608;50.894;5.296;2023-07-08T02:28:21;23.20;;;21.40;;
22881;SDS011;11608;50.894;5.296;2023-07-08T02:30:50;23.05;;;21.25;;
22881;SDS011;11608;50.894;5.296;2023-07-08T02:33:16;22.95;;;21.15;;
22881;SDS011;11608;50.894;5.296;2023-07-08T02:35:42;22.15;;;20.35;;
22881;SDS011;11608;50.894;5.296;2023-07-08T02:38:08;23.42;;;21.65;;
22881;SDS011;11608;50.894;5.296;2023-07-08T02:40:34;23.63;;;21.60;;
22881;SDS011;11608;50.894;5.296;2023-07-08T02:43:00;23.77;;;21.73;;
22881;SDS011;11608;50.894;5.296;2023-07-08T02:45:26;23.13;;;21.23;;
22881;SDS011;11608;50.894;5.296;2023-07-08T02:47:52;22.20;;;20.52;;
22881;SDS011;11608;50.894;5.296;2023-07-08T02:50:18;22.98;;;21.08;;
22881;SDS011;11608;50.894;5.296;2023-07-08T02:52:44;22.52;;;20.65;;
22881;SDS011;11608;50.894;5.296;2023-07-08T02:55:10;22.38;;;20.60;;
22881;SDS011;11608;50.894;5.296;2023-07-08T02:57:36;23.15;;;21.25;;
22881;SDS011;11608;50.894;5.296;2023-07-08T03:00:02;22.42;;;20.73;;
22881;SDS011;11608;50.894;5.296;2023-07-08T03:02:32;23.15;;;21.20;;
22881;SDS011;11608;50.894;5.296;2023-07-08T03:05:00;23.50;;;21.60;;
22881;SDS011;11608;50.894;5.296;2023-07-08T03:07:26;23.33;;;21.52;;
22881;SDS011;11608;50.894;5.296;2023-07-08T03:09:52;23.02;;;21.25;;
22881;SDS011;11608;50.894;5.296;2023-07-08T03:12:18;23.70;;;21.80;;
22881;SDS011;11608;50.894;5.296;2023-07-08T03:14:44;23.58;;;21.65;;
22881;SDS011;11608;50.894;5.296;2023-07-08T03:17:10;23.60;;;21.60;;
22881;SDS011;11608;50.894;5.296;2023-07-08T03:19:36;24.27;;;22.38;;
22881;SDS011;11608;50.894;5.296;2023-07-08T03:22:03;25.15;;;23.15;;
22881;SDS011;11608;50.894;5.296;2023-07-08T03:24:30;24.42;;;22.48;;
22881;SDS011;11608;50.894;5.296;2023-07-08T03:26:56;23.45;;;21.48;;
22881;SDS011;11608;50.894;5.296;2023-07-08T03:29:24;23.95;;;22.02;;
22881;SDS011;11608;50.894;5.296;2023-07-08T03:31:50;22.95;;;21.10;;
22881;SDS011;11608;50.894;5.296;2023-07-08T03:34:16;22.98;;;21.27;;
22881;SDS011;11608;50.894;5.296;2023-07-08T03:36:44;25.10;;;22.98;;
22881;SDS011;11608;50.894;5.296;2023-07-08T03:39:13;23.90;;;21.95;;
22881;SDS011;11608;50.894;5.296;2023-07-08T03:41:40;23.48;;;21.63;;
22881;SDS011;11608;50.894;5.296;2023-07-08T03:44:06;24.48;;;22.52;;
22881;SDS011;11608;50.894;5.296;2023-07-08T03:46:32;23.67;;;21.83;;
22881;SDS011;11608;50.894;5.296;2023-07-08T03:48:58;23.90;;;21.90;;
22881;SDS011;11608;50.894;5.296;2023-07-08T03:51:26;23.63;;;21.75;;
22881;SDS011;11608;50.894;5.296;2023-07-08T03:53:53;23.77;;;21.73;;
22881;SDS011;11608;50.894;5.296;2023-07-08T03:56:19;23.83;;;21.58;;
22881;SDS011;11608;50.894;5.296;2023-07-08T03:58:45;24.35;;;22.25;;
22881;SDS011;11608;50.894;5.296;2023-07-08T04:01:18;23.58;;;21.52;;
22881;SDS011;11608;50.894;5.296;2023-07-08T04:03:45;23.88;;;21.92;;
22881;SDS011;11608;50.894;5.296;2023-07-08T04:06:12;24.30;;;22.23;;
22881;SDS011;11608;50.894;5.296;2023-07-08T04:08:38;24.67;;;22.67;;
22881;SDS011;11608;50.894;5.296;2023-07-08T04:11:04;23.70;;;21.70;;
22881;SDS011;11608;50.894;5.296;2023-07-08T04:13:30;24.35;;;22.13;;
22881;SDS011;11608;50.894;5.296;2023-07-08T04:15:58;23.88;;;21.88;;
22881;SDS011;11608;50.894;5.296;2023-07-08T04:18:25;25.92;;;23.08;;
22881;SDS011;11608;50.894;5.296;2023-07-08T04:20:51;24.08;;;22.15;;
22881;SDS011;11608;50.894;5.296;2023-07-08T04:23:21;24.15;;;22.13;;
22881;SDS011;11608;50.894;5.296;2023-07-08T04:25:47;23.48;;;21.55;;
22881;SDS011;11608;50.894;5.296;2023-07-08T04:28:14;25.17;;;23.08;;
22881;SDS011;11608;50.894;5.296;2023-07-08T04:30:41;24.08;;;22.08;;
22881;SDS011;11608;50.894;5.296;2023-07-08T04:33:11;23.85;;;21.45;;
22881;SDS011;11608;50.894;5.296;2023-07-08T04:35:38;24.95;;;22.85;;
22881;SDS011;11608;50.894;5.296;2023-07-08T04:38:05;24.65;;;22.63;;
22881;SDS011;11608;50.894;5.296;2023-07-08T04:40:34;23.48;;;21.50;;
22881;SDS011;11608;50.894;5.296;2023-07-08T04:43:04;24.70;;;22.58;;
22881;SDS011;11608;50.894;5.296;2023-07-08T04:45:30;24.95;;;22.85;;
22881;SDS011;11608;50.894;5.296;2023-07-08T04:47:56;25.30;;;23.20;;
22881;SDS011;11608;50.894;5.296;2023-07-08T04:50:22;24.30;;;22.13;;
22881;SDS011;11608;50.894;5.296;2023-07-08T04:52:48;24.40;;;22.20;;
22881;SDS011;11608;50.894;5.296;2023-07-08T04:55:14;24.75;;;22.63;;
22881;SDS011;11608;50.894;5.296;2023-07-08T04:57:40;25.65;;;23.20;;
22881;SDS011;11608;50.894;5.296;2023-07-08T05:00:07;24.25;;;22.25;;
22881;SDS011;11608;50.894;5.296;2023-07-08T05:02:35;25.33;;;23.23;;
22881;SDS011;11608;50.894;5.296;2023-07-08T05:05:01;25.15;;;23.05;;
22881;SDS011;11608;50.894;5.296;2023-07-08T05:07:27;25.27;;;23.02;;
22881;SDS011;11608;50.894;5.296;2023-07-08T05:09:53;25.42;;;23.08;;
22881;SDS011;11608;50.894;5.296;2023-07-08T05:12:19;25.48;;;23.23;;
22881;SDS011;11608;50.894;5.296;2023-07-08T05:14:45;25.30;;;23.15;;
22881;SDS011;11608;50.894;5.296;2023-07-08T05:17:11;25.15;;;23.10;;
22881;SDS011;11608;50.894;5.296;2023-07-08T05:19:37;26.05;;;23.63;;
22881;SDS011;11608;50.894;5.296;2023-07-08T05:22:06;25.52;;;23.23;;
22881;SDS011;11608;50.894;5.296;2023-07-08T05:24:32;25.23;;;23.23;;
22881;SDS011;11608;50.894;5.296;2023-07-08T05:26:58;25.70;;;23.58;;
22881;SDS011;11608;50.894;5.296;2023-07-08T05:29:24;24.73;;;22.63;;
22881;SDS011;11608;50.894;5.296;2023-07-08T05:31:50;25.02;;;22.92;;
22881;SDS011;11608;50.894;5.296;2023-07-08T05:34:16;26.38;;;24.08;;
22881;SDS011;11608;50.894;5.296;2023-07-08T05:36:42;26.55;;;24.08;;
22881;SDS011;11608;50.894;5.296;2023-07-08T05:39:08;25.75;;;23.40;;
22881;SDS011;11608;50.894;5.296;2023-07-08T05:41:34;26.45;;;24.15;;
22881;SDS011;11608;50.894;5.296;2023-07-08T05:44:00;27.35;;;24.65;;
22881;SDS011;11608;50.894;5.296;2023-07-08T05:46:26;26.23;;;23.83;;
22881;SDS011;11608;50.894;5.296;2023-07-08T05:48:52;25.98;;;23.38;;
22881;SDS011;11608;50.894;5.296;2023-07-08T05:51:19;25.73;;;23.38;;
22881;SDS011;11608;50.894;5.296;2023-07-08T05:53:45;26.15;;;23.98;;
22881;SDS011;11608;50.894;5.296;2023-07-08T05:56:11;25.50;;;23.38;;
22881;SDS011;11608;50.894;5.296;2023-07-08T05:58:37;25.35;;;22.98;;
22881;SDS011;11608;50.894;5.296;2023-07-08T06:01:03;25.45;;;23.25;;
22881;SDS011;11608;50.894;5.296;2023-07-08T06:03:29;27.52;;;24.88;;
22881;SDS011;11608;50.894;5.296;2023-07-08T06:05:55;25.17;;;22.95;;
22881;SDS011;11608;50.894;5.296;2023-07-08T06:08:22;26.20;;;23.98;;
22881;SDS011;11608;50.894;5.296;2023-07-08T06:10:49;25.92;;;23.83;;
22881;SDS011;11608;50.894;5.296;2023-07-08T06:13:15;26.20;;;23.80;;
22881;SDS011;11608;50.894;5.296;2023-07-08T06:15:41;26.17;;;23.85;;
22881;SDS011;11608;50.894;5.296;2023-07-08T06:18:08;28.10;;;25.10;;
22881;SDS011;11608;50.894;5.296;2023-07-08T06:20:34;26.45;;;24.10;;
22881;SDS011;11608;50.894;5.296;2023-07-08T06:23:00;26.70;;;24.48;;
22881;SDS011;11608;50.894;5.296;2023-07-08T06:25:26;26.73;;;24.35;;
22881;SDS011;11608;50.894;5.296;2023-07-08T06:27:52;26.60;;;24.42;;
22881;SDS011;11608;50.894;5.296;2023-07-08T06:30:18;26.75;;;24.45;;
22881;SDS011;11608;50.894;5.296;2023-07-08T06:32:44;26.50;;;24.08;;
22881;SDS011;11608;50.894;5.296;2023-07-08T06:35:10;27.42;;;24.77;;
22881;SDS011;11608;50.894;5.296;2023-07-08T06:37:37;26.50;;;24.17;;
22881;SDS011;11608;50.894;5.296;2023-07-08T06:40:03;27.45;;;24.52;;
22881;SDS011;11608;50.894;5.296;2023-07-08T06:42:29;25.98;;;23.90;;
22881;SDS011;11608;50.894;5.296;2023-07-08T06:44:55;26.17;;;23.95;;
22881;SDS011;11608;50.894;5.296;2023-07-08T06:47:24;26.60;;;24.20;;
22881;SDS011;11608;50.894;5.296;2023-07-08T06:49:50;25.98;;;23.63;;
22881;SDS011;11608;50.894;5.296;2023-07-08T06:52:16;26.27;;;24.13;;
22881;SDS011;11608;50.894;5.296;2023-07-08T06:54:42;26.42;;;24.35;;
22881;SDS011;11608;50.894;5.296;2023-07-08T06:57:08;24.67;;;22.58;;
22881;SDS011;11608;50.894;5.296;2023-07-08T06:59:34;25.00;;;22.75;;
22881;SDS011;11608;50.894;5.296;2023-07-08T07:02:00;25.58;;;23.17;;
22881;SDS011;11608;50.894;5.296;2023-07-08T07:04:27;26.45;;;23.80;;
22881;SDS011;11608;50.894;5.296;2023-07-08T07:06:53;26.73;;;24.13;;
22881;SDS011;11608;50.894;5.296;2023-07-08T07:09:19;26.35;;;23.88;;
22881;SDS011;11608;50.894;5.296;2023-07-08T07:11:45;26.27;;;23.98;;
22881;SDS011;11608;50.894;5.296;2023-07-08T07:14:11;26.35;;;24.00;;
22881;SDS011;11608;50.894;5.296;2023-07-08T07:16:37;26.60;;;24.40;;
22881;SDS011;11608;50.894;5.296;2023-07-08T07:19:03;26.40;;;24.20;;
22881;SDS011;11608;50.894;5.296;2023-07-08T07:21:29;26.77;;;24.27;;
22881;SDS011;11608;50.894;5.296;2023-07-08T07:23:55;26.05;;;23.75;;
22881;SDS011;11608;50.894;5.296;2023-07-08T07:26:21;26.48;;;24.00;;
22881;SDS011;11608;50.894;5.296;2023-07-08T07:28:47;25.35;;;23.13;;
22881;SDS011;11608;50.894;5.296;2023-07-08T07:31:13;25.88;;;23.67;;
22881;SDS011;11608;50.894;5.296;2023-07-08T07:33:39;25.65;;;23.38;;
22881;SDS011;11608;50.894;5.296;2023-07-08T07:36:05;26.63;;;24.20;;
22881;SDS011;11608;50.894;5.296;2023-07-08T07:38:32;24.95;;;22.90;;
22881;SDS011;11608;50.894;5.296;2023-07-08T07:40:59;25.77;;;23.33;;
22881;SDS011;11608;50.894;5.296;2023-07-08T07:43:29;25.48;;;23.38;;
22881;SDS011;11608;50.894;5.296;2023-07-08T07:45:55;26.52;;;24.23;;
22881;SDS011;11608;50.894;5.296;2023-07-08T07:48:22;27.55;;;25.08;;
22881;SDS011;11608;50.894;5.296;2023-07-08T07:50:49;26.38;;;23.65;;
22881;SDS011;11608;50.894;5.296;2023-07-08T07:53:16;25.95;;;23.63;;
22881;SDS011;11608;50.894;5.296;2023-07-08T07:55:44;26.40;;;24.10;;
22881;SDS011;11608;50.894;5.296;2023-07-08T07:58:13;25.08;;;23.17;;
22881;SDS011;11608;50.894;5.296;2023-07-08T08:00:39;25.67;;;23.10;;
22881;SDS011;11608;50.894;5.296;2023-07-08T08:03:05;24.23;;;22.23;;
22881;SDS011;11608;50.894;5.296;2023-07-08T08:05:35;25.45;;;23.27;;
22881;SDS011;11608;50.894;5.296;2023-07-08T08:08:02;26.17;;;23.90;;
22881;SDS011;11608;50.894;5.296;2023-07-08T08:10:29;25.88;;;23.77;;
22881;SDS011;11608;50.894;5.296;2023-07-08T08:13:01;25.92;;;23.73;;
22881;SDS011;11608;50.894;5.296;2023-07-08T08:15:27;25.80;;;23.75;;
22881;SDS011;11608;50.894;5.296;2023-07-08T08:17:53;25.63;;;23.58;;
22881;SDS011;11608;50.894;5.296;2023-07-08T08:20:20;25.85;;;23.63;;
22881;SDS011;11608;50.894;5.296;2023-07-08T08:22:47;27.35;;;24.75;;
22881;SDS011;11608;50.894;5.296;2023-07-08T08:25:14;26.48;;;24.05;;
22881;SDS011;11608;50.894;5.296;2023-07-08T08:27:40;27.17;;;24.88;;
22881;SDS011;11608;50.894;5.296;2023-07-08T08:30:06;27.35;;;24.80;;
22881;SDS011;11608;50.894;5.296;2023-07-08T08:32:33;27.83;;;24.90;;
22881;SDS011;11608;50.894;5.296;2023-07-08T08:34:59;27.80;;;25.40;;
22881;SDS011;11608;50.894;5.296;2023-07-08T08:37:27;26.48;;;24.08;;
22881;SDS011;11608;50.894;5.296;2023-07-08T08:40:00;26.70;;;24.23;;
22881;SDS011;11608;50.894;5.296;2023-07-08T08:42:32;25.95;;;23.75;;
22881;SDS011;11608;50.894;5.296;2023-07-08T08:44:58;27.02;;;24.65;;
22881;SDS011;11608;50.894;5.296;2023-07-08T08:49:54;26.35;;;24.23;;
22881;SDS011;11608;50.894;5.296;2023-07-08T08:52:22;27.05;;;24.85;;
22881;SDS011;11608;50.894;5.296;2023-07-08T08:54:56;27.15;;;24.85;;
22881;SDS011;11608;50.894;5.296;2023-07-08T08:59:55;26.77;;;24.45;;
22881;SDS011;11608;50.894;5.296;2023-07-08T09:04:54;26.88;;;24.63;;
22881;SDS011;11608;50.894;5.296;2023-07-08T09:07:21;27.33;;;24.77;;
22881;SDS011;11608;50.894;5.296;2023-07-08T09:10:35;26.80;;;24.52;;
22881;SDS011;11608;50.894;5.296;2023-07-08T09:12:36;26.80;;;24.60;;
22881;SDS011;11608;50.894;5.296;2023-07-08T09:15:12;27.50;;;25.00;;
22881;SDS011;11608;50.894;5.296;2023-07-08T09:17:38;27.10;;;24.85;;
22881;SDS011;11608;50.894;5.296;2023-07-08T09:27:45;26.08;;;23.92;;
22881;SDS011;11608;50.894;5.296;2023-07-08T09:30:16;26.92;;;24.65;;
22881;SDS011;11608;50.894;5.296;2023-07-08T09:32:42;26.58;;;24.48;;
22881;SDS011;11608;50.894;5.296;2023-07-08T09:35:09;27.17;;;24.63;;
22881;SDS011;11608;50.894;5.296;2023-07-08T09:37:44;26.58;;;24.27;;
22881;SDS011;11608;50.894;5.296;2023-07-08T09:40:18;26.98;;;24.50;;
22881;SDS011;11608;50.894;5.296;2023-07-08T09:42:46;27.17;;;24.58;;
22881;SDS011;11608;50.894;5.296;2023-07-08T09:45:15;26.80;;;24.38;;
22881;SDS011;11608;50.894;5.296;2023-07-08T09:47:42;26.27;;;24.08;;
22881;SDS011;11608;50.894;5.296;2023-07-08T09:50:24;27.40;;;25.10;;
22881;SDS011;11608;50.894;5.296;2023-07-08T09:52:52;26.77;;;24.35;;
22881;SDS011;11608;50.894;5.296;2023-07-08T09:55:21;26.77;;;24.40;;
22881;SDS011;11608;50.894;5.296;2023-07-08T09:57:48;26.70;;;24.30;;
22881;SDS011;11608;50.894;5.296;2023-07-08T10:00:25;27.27;;;24.92;;
22881;SDS011;11608;50.894;5.296;2023-07-08T10:02:54;27.25;;;24.85;;
22881;SDS011;11608;50.894;5.296;2023-07-08T10:07:51;26.63;;;24.23;;
22881;SDS011;11608;50.894;5.296;2023-07-08T10:10:19;26.60;;;24.20;;
22881;SDS011;11608;50.894;5.296;2023-07-08T10:12:58;26.60;;;24.38;;
22881;SDS011;11608;50.894;5.296;2023-07-08T10:15:35;27.45;;;24.67;;
22881;SDS011;11608;50.894;5.296;2023-07-08T10:18:02;26.77;;;24.48;;
22881;SDS011;11608;50.894;5.296;2023-07-08T10:20:32;25.90;;;23.92;;
22881;SDS011;11608;50.894;5.296;2023-07-08T10:25:39;27.63;;;25.20;;
22881;SDS011;11608;50.894;5.296;2023-07-08T10:28:18;25.67;;;23.48;;
22881;SDS011;11608;50.894;5.296;2023-07-08T10:30:53;27.17;;;24.45;;
22881;SDS011;11608;50.894;5.296;2023-07-08T10:33:30;26.08;;;23.92;;
22881;SDS011;11608;50.894;5.296;2023-07-08T10:36:05;25.40;;;23.38;;
22881;SDS011;11608;50.894;5.296;2023-07-08T10:41:04;25.67;;;23.58;;
22881;SDS011;11608;50.894;5.296;2023-07-08T10:48:48;25.83;;;23.63;;
22881;SDS011;11608;50.894;5.296;2023-07-08T10:51:24;25.85;;;23.65;;
22881;SDS011;11608;50.894;5.296;2023-07-08T10:56:40;26.00;;;23.65;;
22881;SDS011;11608;50.894;5.296;2023-07-08T10:59:24;26.83;;;24.50;;
22881;SDS011;11608;50.894;5.296;2023-07-08T11:02:00;25.65;;;23.33;;
22881;SDS011;11608;50.894;5.296;2023-07-08T11:07:05;25.95;;;23.75;;
22881;SDS011;11608;50.894;5.296;2023-07-08T11:09:42;27.02;;;24.45;;
22881;SDS011;11608;50.894;5.296;2023-07-08T11:17:40;25.98;;;23.75;;
22881;SDS011;11608;50.894;5.296;2023-07-08T11:22:38;27.35;;;24.80;;
22881;SDS011;11608;50.894;5.296;2023-07-08T11:25:07;26.35;;;24.10;;
22881;SDS011;11608;50.894;5.296;2023-07-08T11:27:42;26.10;;;23.65;;
22881;SDS011;11608;50.894;5.296;2023-07-08T11:30:12;26.30;;;23.90;;
22881;SDS011;11608;50.894;5.296;2023-07-08T11:32:39;26.90;;;24.10;;
22881;SDS011;11608;50.894;5.296;2023-07-08T11:35:07;26.08;;;23.88;;
22881;SDS011;11608;50.894;5.296;2023-07-08T11:37:39;25.90;;;23.70;;
22881;SDS011;11608;50.894;5.296;2023-07-08T11:40:07;25.60;;;23.40;;
22881;SDS011;11608;50.894;5.296;2023-07-08T11:42:43;25.70;;;23.50;;
22881;SDS011;11608;50.894;5.296;2023-07-08T11:47:40;26.90;;;24.50;;
22881;SDS011;11608;50.894;5.296;2023-07-08T11:50:21;27.20;;;24.48;;
22881;SDS011;11608;50.894;5.296;2023-07-08T11:55:23;25.75;;;23.33;;
22881;SDS011;11608;50.894;5.296;2023-07-08T11:57:53;26.38;;;23.98;;
22881;SDS011;11608;50.894;5.296;2023-07-08T12:00:23;26.83;;;24.42;;
22881;SDS011;11608;50.894;5.296;2023-07-08T12:02:50;26.27;;;23.70;;
22881;SDS011;11608;50.894;5.296;2023-07-08T12:05:17;26.05;;;23.77;;
22881;SDS011;11608;50.894;5.296;2023-07-08T12:07:46;26.23;;;23.92;;
22881;SDS011;11608;50.894;5.296;2023-07-08T12:10:17;25.70;;;23.45;;
22881;SDS011;11608;50.894;5.296;2023-07-08T12:12:44;26.20;;;23.88;;
22881;SDS011;11608;50.894;5.296;2023-07-08T12:15:11;26.85;;;24.38;;
22881;SDS011;11608;50.894;5.296;2023-07-08T12:17:38;26.55;;;24.42;;
22881;SDS011;11608;50.894;5.296;2023-07-08T12:20:06;26.42;;;23.88;;
22881;SDS011;11608;50.894;5.296;2023-07-08T12:22:38;25.42;;;23.42;;
22881;SDS011;11608;50.894;5.296;2023-07-08T12:25:07;25.27;;;23.08;;
22881;SDS011;11608;50.894;5.296;2023-07-08T12:27:34;26.45;;;24.15;;
22881;SDS011;11608;50.894;5.296;2023-07-08T12:30:00;25.60;;;23.05;;
22881;SDS011;11608;50.894;5.296;2023-07-08T12:32:27;26.38;;;24.05;;
22881;SDS011;11608;50.894;5.296;2023-07-08T12:34:53;25.35;;;23.05;;
22881;SDS011;11608;50.894;5.296;2023-07-08T12:37:19;25.13;;;23.08;;
22881;SDS011;11608;50.894;5.296;2023-07-08T12:39:53;25.90;;;23.33;;
22881;SDS011;11608;50.894;5.296;2023-07-08T12:42:19;25.80;;;23.30;;
22881;SDS011;11608;50.894;5.296;2023-07-08T12:44:46;25.60;;;23.23;;
22881;SDS011;11608;50.894;5.296;2023-07-08T12:47:13;26.48;;;24.08;;
22881;SDS011;11608;50.894;5.296;2023-07-08T12:49:39;25.63;;;23.40;;
22881;SDS011;11608;50.894;5.296;2023-07-08T12:52:05;24.55;;;22.42;;
22881;SDS011;11608;50.894;5.296;2023-07-08T12:54:31;24.67;;;22.35;;
22881;SDS011;11608;50.894;5.296;2023-07-08T12:56:59;25.30;;;23.30;;
22881;SDS011;11608;50.894;5.296;2023-07-08T12:59:25;24.83;;;22.73;;
22881;SDS011;11608;50.894;5.296;2023-07-08T13:01:52;25.20;;;22.95;;
22881;SDS011;11608;50.894;5.296;2023-07-08T13:04:18;25.23;;;22.98;;
22881;SDS011;11608;50.894;5.296;2023-07-08T13:06:45;25.70;;;23.17;;
22881;SDS011;11608;50.894;5.296;2023-07-08T13:09:23;26.02;;;23.58;;
22881;SDS011;11608;50.894;5.296;2023-07-08T13:11:52;26.15;;;23.90;;
22881;SDS011;11608;50.894;5.296;2023-07-08T13:14:20;26.13;;;23.45;;
22881;SDS011;11608;50.894;5.296;2023-07-08T13:16:47;25.98;;;23.45;;
22881;SDS011;11608;50.894;5.296;2023-07-08T13:19:14;26.15;;;23.65;;
22881;SDS011;11608;50.894;5.296;2023-07-08T13:21:40;25.75;;;23.45;;
22881;SDS011;11608;50.894;5.296;2023-07-08T13:24:07;25.23;;;22.98;;
22881;SDS011;11608;50.894;5.296;2023-07-08T13:26:36;25.48;;;23.17;;
22881;SDS011;11608;50.894;5.296;2023-07-08T13:29:13;24.67;;;22.42;;
22881;SDS011;11608;50.894;5.296;2023-07-08T13:31:41;25.33;;;23.02;;
22881;SDS011;11608;50.894;5.296;2023-07-08T13:34:08;25.10;;;22.98;;
22881;SDS011;11608;50.894;5.296;2023-07-08T13:36:36;25.63;;;23.02;;
22881;SDS011;11608;50.894;5.296;2023-07-08T13:39:05;24.65;;;22.55;;
22881;SDS011;11608;50.894;5.296;2023-07-08T13:41:31;25.20;;;22.95;;
22881;SDS011;11608;50.894;5.296;2023-07-08T13:43:57;24.77;;;22.67;;
22881;SDS011;11608;50.894;5.296;2023-07-08T13:48:55;24.80;;;22.60;;
22881;SDS011;11608;50.894;5.296;2023-07-08T13:51:25;24.98;;;22.67;;
22881;SDS011;11608;50.894;5.296;2023-07-08T13:54:01;25.10;;;22.80;;
22881;SDS011;11608;50.894;5.296;2023-07-08T13:56:34;24.77;;;22.58;;
22881;SDS011;11608;50.894;5.296;2023-07-08T13:59:04;24.98;;;22.75;;
22881;SDS011;11608;50.894;5.296;2023-07-08T14:01:31;27.50;;;24.65;;
22881;SDS011;11608;50.894;5.296;2023-07-08T14:03:57;23.85;;;22.05;;
22881;SDS011;11608;50.894;5.296;2023-07-08T14:06:28;24.20;;;21.85;;
22881;SDS011;11608;50.894;5.296;2023-07-08T14:08:58;24.70;;;22.23;;
22881;SDS011;11608;50.894;5.296;2023-07-08T14:11:25;23.30;;;21.40;;
22881;SDS011;11608;50.894;5.296;2023-07-08T14:13:51;23.25;;;21.35;;
22881;SDS011;11608;50.894;5.296;2023-07-08T14:18:49;23.30;;;21.33;;
22881;SDS011;11608;50.894;5.296;2023-07-08T14:21:15;22.17;;;20.38;;
22881;SDS011;11608;50.894;5.296;2023-07-08T14:23:41;23.20;;;21.20;;
22881;SDS011;11608;50.894;5.296;2023-07-08T14:26:09;22.38;;;20.48;;
22881;SDS011;11608;50.894;5.296;2023-07-08T14:28:36;22.27;;;20.45;;
22881;SDS011;11608;50.894;5.296;2023-07-08T14:31:02;23.38;;;21.33;;
22881;SDS011;11608;50.894;5.296;2023-07-08T14:33:28;22.92;;;20.98;;
22881;SDS011;11608;50.894;5.296;2023-07-08T14:35:54;22.77;;;20.85;;
22881;SDS011;11608;50.894;5.296;2023-07-08T14:38:20;22.30;;;20.63;;
22881;SDS011;11608;50.894;5.296;2023-07-08T14:40:46;23.05;;;21.10;;
22881;SDS011;11608;50.894;5.296;2023-07-08T14:45:41;22.20;;;20.33;;
22881;SDS011;11608;50.894;5.296;2023-07-08T14:48:10;22.60;;;20.90;;
22881;SDS011;11608;50.894;5.296;2023-07-08T14:50:36;22.50;;;20.73;;
22881;SDS011;11608;50.894;5.296;2023-07-08T14:53:02;22.63;;;20.77;;
22881;SDS011;11608;50.894;5.296;2023-07-08T14:55:28;21.95;;;20.00;;
22881;SDS011;11608;50.894;5.296;2023-07-08T14:57:54;22.98;;;20.92;;
22881;SDS011;11608;50.894;5.296;2023-07-08T15:00:21;23.15;;;21.15;;
22881;SDS011;11608;50.894;5.296;2023-07-08T15:02:48;23.05;;;20.80;;
22881;SDS011;11608;50.894;5.296;2023-07-08T15:05:19;23.40;;;21.40;;
22881;SDS011;11608;50.894;5.296;2023-07-08T15:07:52;23.23;;;21.10;;
22881;SDS011;11608;50.894;5.296;2023-07-08T15:10:18;23.00;;;21.10;;
22881;SDS011;11608;50.894;5.296;2023-07-08T15:12:45;22.63;;;20.90;;
22881;SDS011;11608;50.894;5.296;2023-07-08T15:15:15;22.27;;;20.48;;
22881;SDS011;11608;50.894;5.296;2023-07-08T15:17:42;23.15;;;21.15;;
22881;SDS011;11608;50.894;5.296;2023-07-08T15:20:12;22.27;;;20.58;;